weather.gov     
National Weather Service

Terminal Aerodrome Forecast
NWS Homepage
This page is being discontinued on March 12, 2014.
The same data is available at this site. Please update your bookmarks.
Thank you, and we apologize for the inconvenience.
Please send an email to SR-SRH.Webmaster@noaa.gov with any concerns.


Current Version
Previous Version:    01  02  03  04  05  06  07  08  09  10  11  12  13  14  15  16  17  18  19  20  21  22  23  24  25  26  27  28  29  30  
   31  32  33  34  35  
[Printable]
574
FTUS46 KOTX 200525
TAFPUW
TAF
KPUW 200525Z 2006/2106 25006KT P6SM SCT020 BKN060
     FM201000 12007KT P6SM BKN030 OVC050
     FM201400 11011KT 6SM -RA BR SCT015 OVC020
     FM202100 13011KT 4SM -RA BR BKN005 OVC010=




574
FTUS46 KOTX 200525
TAFPUW
TAF
KPUW 200525Z 2006/2106 25006KT P6SM SCT020 BKN060
     FM201000 12007KT P6SM BKN030 OVC050
     FM201400 11011KT 6SM -RA BR SCT015 OVC020
     FM202100 13011KT 4SM -RA BR BKN005 OVC010=


U.S. Dept. of Commerce
NOAA National Weather Service
1325 East West Highway
Silver Spring, MD 20910
E-mail: w-nws.webmaster@noaa.gov
Page last modified: May 16, 2007
NATIONAL WEATHER SERVICE: for Safety, for Work, for Fun - FOR LIFE